createdAt,value
2023-05-02T00:03:44.056Z,96718.28
2023-05-02T00:08:46.836Z,96720.88
2023-05-02T00:13:49.737Z,96707.00
2023-05-02T00:18:52.458Z,96695.09
2023-05-02T00:23:54.768Z,96727.13
2023-05-02T00:28:58.756Z,96705.72
2023-05-02T00:34:01.609Z,96713.63
2023-05-02T00:39:04.979Z,96740.03
2023-05-02T00:44:08.648Z,96702.94
2023-05-02T00:49:11.582Z,96718.25
2023-05-02T00:54:14.759Z,96751.31
2023-05-02T00:59:18.576Z,96749.72
2023-05-02T01:04:36.826Z,96749.31
2023-05-02T01:10:06.412Z,96753.69
2023-05-02T01:15:16.685Z,96735.22
2023-05-02T01:20:22.420Z,96708.69
2023-05-02T01:25:50.466Z,96708.34
2023-05-02T01:30:55.072Z,96714.00
2023-05-02T01:35:58.234Z,96746.09
2023-05-02T01:41:07.412Z,96749.19
2023-05-02T01:46:11.556Z,96717.34
2023-05-02T01:51:17.986Z,96751.66
2023-05-02T01:56:22.655Z,96743.41
2023-05-02T02:01:29.146Z,96714.31
2023-05-02T02:06:31.945Z,96698.06
2023-05-02T02:11:53.103Z,96732.00
2023-05-02T02:17:01.745Z,96721.19
2023-05-02T02:22:08.192Z,96706.72
2023-05-02T02:27:10.856Z,96731.78
2023-05-02T02:32:13.640Z,96741.69
2023-05-02T02:37:20.461Z,96716.06
2023-05-02T02:42:49.930Z,96733.25
2023-05-02T02:48:01.353Z,96741.03
2023-05-02T02:53:14.364Z,96751.75
2023-05-02T02:58:39.273Z,96720.34
2023-05-02T03:03:43.727Z,96745.84
2023-05-02T03:08:46.488Z,96726.94
2023-05-02T03:13:54.128Z,96753.28
2023-05-02T03:18:58.560Z,96749.91
2023-05-02T03:24:03.140Z,96719.25
2023-05-02T03:29:05.816Z,96727.22
2023-05-02T03:34:13.501Z,96737.91
2023-05-02T03:39:17.293Z,96727.03
2023-05-02T03:44:21.318Z,96738.09
2023-05-02T03:49:24.011Z,96757.22
2023-05-02T03:54:28.512Z,96755.97
2023-05-02T03:59:35.527Z,96717.31
2023-05-02T04:04:47.703Z,96748.44
2023-05-02T04:09:53.995Z,96744.72
2023-05-02T04:14:56.899Z,96749.81
2023-05-02T04:20:05.632Z,96779.13
2023-05-02T04:25:11.337Z,96755.97
2023-05-02T04:30:16.544Z,96748.31
2023-05-02T04:35:26.166Z,96767.72
2023-05-02T04:40:29.943Z,96768.97
2023-05-02T04:45:37.983Z,96748.94
2023-05-02T04:50:47.297Z,96760.88
2023-05-02T04:55:50.128Z,96774.41
2023-05-02T05:00:52.863Z,96768.56
2023-05-02T05:05:55.686Z,96764.78
2023-05-02T05:10:59.597Z,96764.50
2023-05-02T05:16:04.656Z,96759.34
2023-05-02T05:21:10.185Z,96734.78
2023-05-02T05:26:17.562Z,96717.06
2023-05-02T05:31:24.613Z,96712.03
2023-05-02T05:36:34.072Z,96705.91
2023-05-02T05:41:38.727Z,96703.41
2023-05-02T05:46:45.064Z,96710.66
2023-05-02T05:51:48.968Z,96695.31
2023-05-02T05:56:53.835Z,96687.63
2023-05-02T06:01:56.647Z,96684.44
2023-05-02T06:06:59.899Z,96679.44
2023-05-02T06:12:02.831Z,96674.56
2023-05-02T06:17:07.688Z,96672.91
2023-05-02T06:22:14.319Z,96677.63
2023-05-02T06:27:17.137Z,96680.31
2023-05-02T06:32:20.224Z,96651.66
2023-05-02T06:37:22.786Z,96666.84
2023-05-02T06:42:25.516Z,96662.59
2023-05-02T06:47:28.585Z,96670.72
2023-05-02T06:52:31.396Z,96642.38
2023-05-02T06:57:33.726Z,96670.56
2023-05-02T07:02:36.154Z,96673.94
2023-05-02T07:07:39.248Z,96674.03
2023-05-02T07:12:41.786Z,96686.94
2023-05-02T07:17:45.104Z,96689.59
2023-05-02T07:22:47.586Z,96701.78
2023-05-02T07:27:50.197Z,96693.09
2023-05-02T07:32:52.833Z,96690.19
2023-05-02T07:37:54.983Z,96705.16
2023-05-02T07:42:57.559Z,96708.69
2023-05-02T07:47:59.794Z,96705.66
2023-05-02T07:53:01.979Z,96705.94
2023-05-02T07:58:04.727Z,96721.88
2023-05-02T08:03:08.138Z,96701.63
2023-05-02T08:08:11.159Z,96720.53
2023-05-02T08:13:13.833Z,96714.94
2023-05-02T08:18:16.529Z,96719.44
2023-05-02T08:23:19.023Z,96723.09
2023-05-02T08:28:21.790Z,96727.47
2023-05-02T08:33:24.390Z,96742.28
2023-05-02T08:38:27.315Z,96735.09
2023-05-02T08:43:32.891Z,96729.81
2023-05-02T08:48:41.150Z,96728.59
2023-05-02T08:53:44.326Z,96721.50
2023-05-02T08:58:47.133Z,96701.97
2023-05-02T09:03:50.400Z,96712.97
2023-05-02T09:08:54.079Z,96726.59
2023-05-02T09:13:59.257Z,96714.66
2023-05-02T09:19:01.901Z,96728.38
2023-05-02T09:24:18.704Z,96689.44
2023-05-02T09:29:22.342Z,96689.16
2023-05-02T09:34:25.018Z,96698.91
2023-05-02T09:39:32.502Z,96664.63
2023-05-02T09:44:39.432Z,96678.72
2023-05-02T09:49:42.899Z,96708.09
2023-05-02T09:54:53.073Z,96637.59
2023-05-02T09:59:59.138Z,96681.91
2023-05-02T10:05:04.816Z,96678.75
2023-05-02T10:10:08.856Z,96626.19
2023-05-02T10:15:15.848Z,96612.66
2023-05-02T10:20:27.074Z,96669.00
2023-05-02T10:25:31.167Z,96624.13
2023-05-02T10:30:36.152Z,96641.00
2023-05-02T10:35:40.222Z,96610.50
2023-05-02T10:40:44.077Z,96631.63
2023-05-02T10:45:46.652Z,96640.72
2023-05-02T10:50:51.869Z,96639.16
2023-05-02T10:56:17.649Z,96653.06
2023-05-02T11:01:29.778Z,96643.25
2023-05-02T11:06:37.753Z,96638.16
2023-05-02T11:11:45.448Z,96655.81
2023-05-02T11:17:06.483Z,96650.25
2023-05-02T11:22:43.878Z,96641.00
2023-05-02T11:27:49.477Z,96620.91
2023-05-02T11:32:53.814Z,96670.06
2023-05-02T11:38:00.766Z,96662.63
2023-05-02T11:43:16.899Z,96620.84
2023-05-02T11:48:20.974Z,96622.03
2023-05-02T11:53:29.734Z,96617.34
2023-05-02T11:58:34.246Z,96630.53
2023-05-02T12:03:36.899Z,96606.28
2023-05-02T12:08:40.809Z,96610.31
2023-05-02T12:13:48.176Z,96621.25
2023-05-02T12:18:51.163Z,96608.47
2023-05-02T12:23:53.987Z,96585.19
2023-05-02T12:28:58.501Z,96613.00
2023-05-02T12:34:01.663Z,96590.41
2023-05-02T12:39:04.885Z,96595.19
2023-05-02T12:44:10.518Z,96589.53
2023-05-02T12:49:13.052Z,96565.19
2023-05-02T12:54:22.298Z,96572.81
2023-05-02T12:59:33.172Z,96582.53
2023-05-02T13:04:41.777Z,96555.09
2023-05-02T13:09:44.451Z,96577.81
2023-05-02T13:14:47.076Z,96582.28
2023-05-02T13:20:00.182Z,96588.41
2023-05-02T13:25:05.768Z,96566.75
2023-05-02T13:30:09.767Z,96552.38
2023-05-02T13:35:16.234Z,96543.78
2023-05-02T13:40:18.894Z,96524.16
2023-05-02T13:45:22.081Z,96569.72
2023-05-02T13:50:24.752Z,96557.78
2023-05-02T13:55:27.147Z,96543.50
2023-05-02T14:00:29.754Z,96542.22
2023-05-02T14:05:32.334Z,96554.59
2023-05-02T14:10:36.573Z,96561.59
2023-05-02T14:15:39.163Z,96568.91
2023-05-02T14:20:41.668Z,96550.75
2023-05-02T14:25:44.275Z,96574.13
2023-05-02T14:31:00.165Z,96586.59
2023-05-02T14:36:04.227Z,96583.38
2023-05-02T14:41:07.235Z,96588.13
2023-05-02T14:46:09.811Z,96586.06
2023-05-02T14:51:12.759Z,96566.72
2023-05-02T14:56:17.376Z,96562.09
2023-05-02T15:01:20.925Z,96549.38
2023-05-02T15:06:42.379Z,96580.03
2023-05-02T15:11:45.367Z,96558.59
2023-05-02T15:16:48.153Z,96574.41
2023-05-02T15:21:53.420Z,96557.63
2023-05-02T15:26:56.521Z,96551.91
2023-05-02T15:31:59.262Z,96545.63
2023-05-02T15:37:02.283Z,96550.63
2023-05-02T15:42:05.682Z,96546.59
2023-05-02T15:47:08.778Z,96576.41
2023-05-02T15:52:11.873Z,96552.72
2023-05-02T15:57:14.510Z,96556.09
2023-05-02T16:02:17.105Z,96548.19
2023-05-02T16:07:19.734Z,96563.06
2023-05-02T16:12:21.960Z,96569.44
2023-05-02T16:17:25.674Z,96577.94
2023-05-02T16:22:28.629Z,96582.03
2023-05-02T16:27:31.216Z,96562.41
2023-05-02T16:32:33.635Z,96587.88
2023-05-02T16:37:36.070Z,96597.31
2023-05-02T16:42:40.282Z,96595.53
2023-05-02T16:47:43.417Z,96597.81
2023-05-02T16:52:48.841Z,96608.91
2023-05-02T16:57:59.949Z,96606.47
2023-05-02T17:03:05.018Z,96595.28
2023-05-02T17:08:09.178Z,96613.22
2023-05-02T17:13:12.944Z,96582.22
2023-05-02T17:18:16.064Z,96604.50
2023-05-02T17:23:19.387Z,96628.91
2023-05-02T17:28:21.700Z,96633.94
2023-05-02T17:33:26.672Z,96635.66
2023-05-02T17:38:28.921Z,96622.19
2023-05-02T17:43:31.796Z,96629.06
2023-05-02T17:48:34.340Z,96625.91
2023-05-02T17:53:37.548Z,96634.34
2023-05-02T17:58:40.166Z,96659.06
2023-05-02T18:03:42.856Z,96664.22
2023-05-02T18:08:46.249Z,96683.97
2023-05-02T18:13:50.053Z,96678.81
2023-05-02T18:18:53.807Z,96683.78
2023-05-02T18:23:57.293Z,96704.88
2023-05-02T18:28:59.990Z,96700.41
2023-05-02T18:34:03.155Z,96694.94
2023-05-02T18:39:06.270Z,96703.59
2023-05-02T18:44:10.628Z,96723.41
2023-05-02T18:49:13.238Z,96711.53
2023-05-02T18:54:16.000Z,96726.31
2023-05-02T18:59:19.198Z,96725.81
2023-05-02T19:04:21.808Z,96714.19
2023-05-02T19:09:24.498Z,96705.19
2023-05-02T19:14:27.485Z,96691.47
2023-05-02T19:19:31.329Z,96702.28
2023-05-02T19:24:33.960Z,96695.34
2023-05-02T19:29:36.790Z,96662.59
2023-05-02T19:34:39.350Z,96684.34
2023-05-02T19:39:41.942Z,96694.97
2023-05-02T19:44:44.226Z,96675.72
2023-05-02T19:49:46.953Z,96678.53
2023-05-02T19:54:52.603Z,96646.72
2023-05-02T19:59:55.798Z,96678.41
2023-05-02T20:04:58.011Z,96637.38
2023-05-02T20:10:00.829Z,96662.94
2023-05-02T20:15:04.347Z,96678.50
2023-05-02T20:20:08.647Z,96681.59
2023-05-02T20:25:16.156Z,96673.91
2023-05-02T20:30:19.135Z,96674.84
2023-05-02T20:35:21.445Z,96656.94
2023-05-02T20:40:26.450Z,96700.41
2023-05-02T20:45:29.278Z,96661.13
2023-05-02T20:50:31.681Z,96668.28
2023-05-02T20:55:35.961Z,96679.47
2023-05-02T21:00:38.531Z,96672.59
2023-05-02T21:05:43.634Z,96692.88
2023-05-02T21:10:46.192Z,96686.78
2023-05-02T21:15:48.856Z,96670.16
2023-05-02T21:20:51.417Z,96677.22
2023-05-02T21:25:54.949Z,96628.91
2023-05-02T21:30:57.251Z,96661.88
2023-05-02T21:36:00.302Z,96663.00
2023-05-02T21:41:05.659Z,96659.91
2023-05-02T21:46:08.432Z,96631.63
2023-05-02T21:51:11.991Z,96650.25
2023-05-02T21:56:14.821Z,96645.19
2023-05-02T22:01:17.779Z,96656.44
2023-05-02T22:06:20.638Z,96662.34
2023-05-02T22:11:24.496Z,96648.34
2023-05-02T22:16:26.697Z,96655.03
2023-05-02T22:21:30.351Z,96691.97
2023-05-02T22:26:32.955Z,96661.41
2023-05-02T22:31:35.703Z,96643.75
2023-05-02T22:36:38.302Z,96686.47
2023-05-02T22:41:40.935Z,96671.94
2023-05-02T22:46:43.752Z,96665.16
2023-05-02T22:51:46.631Z,96656.72
2023-05-02T22:56:49.806Z,96660.94
2023-05-02T23:01:52.327Z,96644.00
2023-05-02T23:06:55.026Z,96670.00
2023-05-02T23:11:57.788Z,96640.81
2023-05-02T23:17:03.557Z,96638.94
2023-05-02T23:22:06.301Z,96622.88
2023-05-02T23:27:09.124Z,96620.81
2023-05-02T23:32:11.771Z,96624.41
2023-05-02T23:37:14.582Z,96630.78
2023-05-02T23:42:17.117Z,96634.00
2023-05-02T23:47:20.572Z,96623.66
2023-05-02T23:52:23.301Z,96610.16
2023-05-02T23:57:25.977Z,96596.97
